Lake Levels
Share |
Lake Levels   »   United States   »   Texas
LAKES RIVERS MARINAS NEWS HOUSES EVENTS MAPS
1,654 Lakes:
Lake Store

Lake Levels in Texas, United States

LakeLevels.info is a national information and alert service for lake water levels in the United States. With a FREE member account you can receive water level alerts by email when the water level reaches your desired alert level.


We currently offer Lake Level information and alerts for 103 lakes and serve 13,570 members with 32,495 alerts.


Sign-up for a Lake Level Alert




Filter By State:
Lake Name Current
Level
Full Pool +/-
Full Pool
Reading
Date - Time
Alan Henry (TX) 2,217.19 2,224.00 -6.81 7/29/2016  11:30 AM
Amistad (TX) 1,092.67 1,117.00 -24.33 7/29/2016  11:15 AM
Amon Carter (TX) 921.01 920.00 1.01 7/29/2016  11:00 AM
Aquilla (TX) 537.84 537.50 0.34 7/29/2016  9:30 AM
Arlington (TX) 547.59 550.00 -2.41 7/29/2016  12:00 AM
Arrowhead (TX) 925.02 926.00 -0.98 7/29/2016  12:00 AM
Athens (TX) 439.59 440.00 -0.41 7/29/2016  11:30 AM
Austin (TX) 492.05 492.80 -0.75 7/29/2016  10:16 AM
Bardwell (TX) 420.73 421.00 -0.27 7/29/2016  11:30 AM
Belton (TX) 604.71 594.00 10.71 7/29/2016  11:00 AM
Benbrook (TX) 693.33 694.00 -0.67 7/29/2016  10:00 AM
Bob Sandlin (TX) 336.96 337.50 -0.54 7/29/2016  9:48 AM
Bonham (TX) 563.77 565.00 -1.23 7/29/2016  11:00 AM
Brady Creek (TX) 1,734.18 1,743.00 -8.82 7/29/2016  8:45 AM
Bridgeport (TX) 836.06 836.00 0.06 7/29/2016  8:00 AM
Brownwood (TX) 1,424.07 1,425.00 -0.93 7/29/2016  11:30 AM
Buchanan (TX) 1,017.73 1,020.50 -2.77 7/29/2016  10:16 AM
Buffalo Creek (TX) 1,046.01 1,049.00 -2.99 7/29/2016  12:00 AM
Caddo (LA TX) 169.10 168.50 0.60 7/29/2016  7:00 AM
Canyon (TX) 909.75 909.00 0.75 7/29/2016  11:15 AM
Cedar Creek (TX) 321.19 322.00 -0.81 7/29/2016  11:45 AM
Champion Creek (TX) 2,053.42 2,083.00 -29.58 7/29/2016  11:30 AM
Cherokee (TX) 279.80 280.00 -0.20 7/22/2016  6:45 AM
Choke Canyon (TX) 198.25 220.50 -22.25 7/29/2016  7:30 AM
Cisco (TX) 1,521.25 1,520.00 1.25 7/29/2016  3:30 PM
Coleman (TX) 1,716.68 1,718.00 -1.32 7/29/2016  9:30 AM
Coleto Creek (TX) 97.20 98.28 -1.08 7/29/2016  8:00 AM
Colorado City (TX) 2,048.93 2,070.20 -21.27 7/29/2016  11:30 AM
Conroe (TX) 200.52 201.00 -0.48 7/29/2016  9:45 AM
Corpus Christi (TX) 88.45 94.00 -5.55 7/29/2016  10:18 AM
E. V. Spence (TX) 1,843.19 1,898.00 -54.81 7/29/2016  6:00 AM
Eagle Mountain (TX) 649.01 649.00 0.01 7/29/2016  10:00 AM
Falcon (TX) 274.36 301.20 -26.84 6/13/2016  10:25 AM
Fork (TX) 401.85 403.00 -1.15 7/29/2016  11:30 AM
Georgetown (TX) 791.06 791.00 0.06 7/29/2016  10:00 AM
Graham (TX) 1,073.99 1,075.00 -1.01 7/29/2016  11:00 AM
Granbury (TX) 692.70 693.00 -0.30 7/29/2016  8:30 AM
Granger (TX) 504.45 504.00 0.45 7/29/2016  9:00 AM
Grapevine (TX) 535.59 535.00 0.59 7/29/2016  11:45 AM
Hords Creek (TX) 1,898.23 1,900.00 -1.77 7/29/2016  7:30 AM
Houston (TX) 42.65 41.70 0.95 7/29/2016  11:30 AM
Hubbard Creek (TX) 1,181.92 1,183.00 -1.08 7/29/2016  11:15 AM
Hubert M Moss (TX) 714.44 715.00 -0.56 7/29/2016  11:15 AM
Inks (TX) 887.23 886.90 0.33 7/29/2016  7:00 AM
Jacksonville (TX) 421.73 422.00 -0.27 7/29/2016  9:48 AM
JB Thomas (TX) 2,246.93 2,258.00 -11.07 7/29/2016  11:45 AM
Jim Chapman (TX) 439.28 440.00 -0.72 7/29/2016  9:48 AM
Joe Pool (TX) 521.91 522.00 -0.09 7/29/2016  8:00 AM
Kemp (TX) 1,143.56 1,144.00 -0.44 7/29/2016  11:15 AM
Lake O' the Pines (TX) 230.96 228.50 2.46 7/29/2016  9:48 AM
Lavon (TX) 491.17 492.00 -0.83 7/29/2016  7:00 AM
Leon (TX) 1,373.84 7/29/2016  11:45 AM
Lewisville (TX) 522.10 522.00 0.10 7/29/2016  6:30 AM
Limestone (TX) 362.17 363.00 -0.83 7/29/2016  8:45 AM
Livingston (TX) 131.23 131.00 0.23 7/29/2016  11:15 AM
Lyndon B. Johnson (TX) 824.65 825.00 -0.35 7/29/2016  10:16 AM
MacKenzie (TX) 3,026.92 3,100.00 -73.08 7/29/2016  11:30 AM
Marble Falls (TX) 736.26 737.00 -0.74 7/29/2016  10:16 AM
Martin Creek (TX) 304.77 306.00 -1.23 7/29/2016  11:30 AM
Medina (TX) 1,063.86 1,062.00 1.86 7/29/2016  9:00 AM
Meredith (TX) 2,877.53 2,941.00 -63.47 7/29/2016  11:30 AM
Mexia (TX) 447.61 448.30 -0.69 7/29/2016  11:15 AM
Millers Creek (TX) 1,333.14 1,334.00 -0.86 7/29/2016  11:00 AM
Mineral Wells (TX) 863.03 863.00 0.03 7/29/2016  12:30 PM
Moss Creek (TX) 2,329.34 2,337.00 -7.66 7/29/2016  9:30 AM
Murvaul (TX) 264.60 265.50 -0.90 7/29/2016  9:48 AM
Nacogdoches (TX) 277.62 279.00 -1.38 7/29/2016  9:48 AM
Natural Dam Salt (TX) 2,447.33 2,457.00 -9.67 7/29/2016  11:30 AM
Navarro Mills (TX) 424.62 424.50 0.12 7/29/2016  5:00 AM
Nocona (TX) 826.99 827.00 -0.01 7/29/2016  9:00 AM
O. C. Fisher (TX) 1,875.78 1,908.00 -32.22 7/29/2016  11:00 AM
O.H. Ivie (TX) 1,516.68 1,551.50 -34.82 7/29/2016  8:15 AM
Oak Creek (TX) 1,988.63 2,000.00 -11.37 7/29/2016  12:00 AM
Palestine (TX) 344.34 345.00 -0.66 7/29/2016  9:48 AM
Palo Pinto (TX) 866.74 867.00 -0.26 7/29/2016  11:15 AM
Pat Cleburne (TX) 732.97 733.60 -0.63 7/29/2016  10:00 AM
Pat Mayse (TX) 450.42 451.00 -0.58 7/29/2016  9:48 AM
Phantom Hill (TX) 1,635.35 1,635.90 -0.55 7/29/2016  12:00 AM
Possum Kingdom (TX) 998.70 1,000.00 -1.30 7/29/2016  9:42 AM
Proctor (TX) 1,161.90 1,162.00 -0.10 7/29/2016  10:30 AM
Ray Hubbard (TX) 435.06 435.50 -0.44 7/29/2016  11:30 AM
Ray Roberts (TX) 632.55 632.50 0.05 7/29/2016  5:15 AM
Red Bluff (TX) 2,823.41 2,827.13 -3.72 7/29/2016  11:30 AM
Richland Chambers (TX) 314.84 315.00 -0.16 7/29/2016  9:42 AM
Sam Rayburn (TX) 163.85 164.40 -0.55 7/29/2016  9:00 AM
Somerville (TX) 248.11 238.00 10.11 7/29/2016  11:00 AM
Squaw Creek (TX) 775.19 775.00 0.19 7/29/2016  8:00 AM
Stamford (TX) 1,416.06 1,417.00 -0.94 7/29/2016  11:30 AM
Steinhagen Reservoir (TX) 82.77 82.40 0.37 7/29/2016  11:00 AM
Stillhouse Hollow (TX) 624.70 622.00 2.70 7/29/2016  11:00 AM
Tawakoni (TX) 437.18 437.50 -0.32 7/29/2016  11:30 AM
Texana (TX) 43.00 44.00 -1.00 7/29/2016  11:00 AM
Texoma (TX) 618.20 617.00 1.20 7/29/2016  11:00 AM
Toledo Bend (TX LA) 171.08 172.00 -0.92 7/29/2016  11:30 AM
Travis (TX) 679.16 681.00 -1.84 7/29/2016  11:00 AM
Twin Buttes (TX) 1,902.17 1,940.00 -37.83 7/29/2016  12:00 AM
Tyler (TX) 374.52 375.50 -0.98 7/29/2016  9:48 AM
Waco (TX) 462.09 462.00 0.09 7/29/2016  12:15 AM
Waxahachie (TX) 531.22 7/29/2016  12:00 AM
White River (TX) 2,353.96 7/29/2016  1:15 AM
Whitney (TX) 531.64 533.00 -1.36 7/29/2016  11:15 AM
Worth (TX) 593.23 594.00 -0.77 7/29/2016  11:00 AM
Wright Patman (TX) 240.65 220.60 20.05 7/22/2016  9:50 AM


CURRENT DAILY STREAMFLOW CONDITIONS
High
90th percentile
75th - 89th percentile
25th - 74th percentile
10th - 24th percentile
10th percentile
Low
Not ranked

The colored dots on this map depict streamflow conditions as a percentile, which is computed from the period of record for the current day of the year. Only stations with at least 30 years of record are used. The gray circles indicate other stations that were not ranked in percentiles either because they have fewer than 30 years of record or because they report parameters other than streamflow. Some stations, for example, measure stage only.
TX Daily Streamflow Conditions



U.S. Drought Monitor